Terminal Aerodrome Forecast
Issued by NWS

Home | Current Version | Previous Version | Text Only | Print | Product List | Glossary On
Versions: 1 2 3 4 5 6 7 8 9 10 11 12 13 14 15 16 17 18 19 20 21 22 23 24
000
FTUS42 KJAX 051743
TAFVQQ
TAF
KVQQ 051743Z 0518/0618 23004KT P6SM SCT040 SCT120
     FM051900 22007KT P6SM VCTS SCT040CB BKN060
      TEMPO 0520/0523 VRB20G30KT 3SM TSRA BKN030CB OVC060
     FM060200 19004KT P6SM SCT100 BKN200
     FM061400 25005KT P6SM SCT030 BKN250=

USA.gov is the U.S. government's official web portal to all federal, state and local government web resources and services.